createdAt,value
2023-03-27T00:02:23.326Z,3.34
2023-03-27T00:04:50.824Z,3.33
2023-03-27T00:07:20.023Z,3.34
2023-03-27T00:09:47.316Z,3.34
2023-03-27T00:12:14.819Z,3.35
2023-03-27T00:14:42.032Z,3.35
2023-03-27T00:17:11.095Z,3.33
2023-03-27T00:19:38.747Z,3.32
2023-03-27T00:22:06.236Z,3.31
2023-03-27T00:24:34.428Z,3.30
2023-03-27T00:27:01.668Z,3.28
2023-03-27T00:29:29.357Z,3.28
2023-03-27T00:31:56.643Z,3.28
2023-03-27T00:34:23.827Z,3.26
2023-03-27T00:36:53.925Z,3.24
2023-03-27T00:39:21.150Z,3.21
2023-03-27T00:41:49.061Z,3.21
2023-03-27T00:44:25.905Z,3.22
2023-03-27T00:46:55.432Z,3.22
2023-03-27T00:49:25.145Z,3.22
2023-03-27T00:51:53.868Z,3.25
2023-03-27T00:54:30.181Z,3.28
2023-03-27T00:57:01.556Z,3.28
2023-03-27T00:59:32.308Z,3.27
2023-03-27T01:02:02.636Z,3.26
2023-03-27T01:04:31.432Z,3.24
2023-03-27T01:07:00.215Z,3.22
2023-03-27T01:09:27.905Z,3.19
2023-03-27T01:12:19.845Z,3.18
2023-03-27T01:14:59.794Z,3.19
2023-03-27T01:17:50.339Z,3.21
2023-03-27T01:20:18.084Z,3.23
2023-03-27T01:23:00.900Z,3.25
2023-03-27T01:25:45.778Z,3.24
2023-03-27T01:28:34.598Z,3.22
2023-03-27T01:31:21.318Z,3.19
2023-03-27T01:34:15.350Z,3.16
2023-03-27T01:36:52.038Z,3.12
2023-03-27T01:39:19.260Z,3.07
2023-03-27T01:42:04.225Z,3.05
2023-03-27T01:44:44.896Z,3.04
2023-03-27T01:47:28.361Z,3.02
2023-03-27T01:50:11.255Z,3.00
2023-03-27T01:52:44.560Z,2.99
2023-03-27T01:55:19.375Z,2.99
2023-03-27T01:58:00.656Z,2.99
2023-03-27T02:01:04.023Z,2.99
2023-03-27T02:03:23.001Z,3.00
2023-03-27T02:06:03.436Z,3.03
2023-03-27T02:08:35.227Z,3.05
2023-03-27T02:11:26.780Z,3.10
2023-03-27T02:14:11.813Z,3.12
2023-03-27T02:16:46.302Z,3.10
2023-03-27T02:19:20.248Z,3.00
2023-03-27T02:21:48.251Z,2.85
2023-03-27T02:24:19.526Z,2.71
2023-03-27T02:26:53.454Z,2.62
2023-03-27T02:29:52.309Z,2.54
2023-03-27T02:32:56.647Z,2.49
2023-03-27T02:35:40.984Z,2.46
2023-03-27T02:38:23.724Z,2.42
2023-03-27T02:40:57.565Z,2.38
2023-03-27T02:44:11.183Z,2.34
2023-03-27T02:47:07.706Z,2.32
2023-03-27T02:49:51.484Z,2.29
2023-03-27T02:52:26.713Z,2.26
2023-03-27T02:55:06.572Z,2.23
2023-03-27T02:57:41.924Z,2.20
2023-03-27T03:00:45.085Z,2.13
2023-03-27T03:03:44.636Z,2.09
2023-03-27T03:06:32.116Z,2.04
2023-03-27T03:09:04.657Z,2.00
2023-03-27T03:11:37.689Z,1.99
2023-03-27T03:14:12.737Z,1.97
2023-03-27T03:16:40.262Z,1.98
2023-03-27T03:19:07.807Z,1.97
2023-03-27T03:21:36.658Z,1.99
2023-03-27T03:24:04.177Z,2.01
2023-03-27T03:26:32.222Z,2.04
2023-03-27T03:29:01.688Z,2.05
2023-03-27T03:31:44.282Z,2.09
2023-03-27T03:34:16.704Z,2.10
2023-03-27T03:36:49.384Z,2.13
2023-03-27T03:39:22.335Z,2.17
2023-03-27T03:41:50.795Z,2.19
2023-03-27T03:44:19.218Z,2.20
2023-03-27T03:46:46.669Z,2.21
2023-03-27T03:49:20.396Z,2.24
2023-03-27T03:51:47.984Z,2.25
2023-03-27T03:54:31.669Z,2.25
2023-03-27T03:57:00.162Z,2.19
2023-03-27T03:59:27.705Z,2.11
2023-03-27T04:02:30.207Z,2.03
2023-03-27T04:05:08.616Z,1.94
2023-03-27T04:07:37.264Z,1.88
2023-03-27T04:10:19.592Z,1.84
2023-03-27T04:12:48.526Z,1.84
2023-03-27T04:15:30.266Z,1.85
2023-03-27T04:18:14.985Z,1.84
2023-03-27T04:20:42.642Z,1.86
2023-03-27T04:23:13.962Z,1.85
2023-03-27T04:25:41.470Z,1.84
2023-03-27T04:28:16.419Z,1.84
2023-03-27T04:30:50.357Z,1.80
2023-03-27T04:33:46.839Z,1.78
2023-03-27T04:36:37.536Z,1.74
2023-03-27T04:39:10.758Z,1.71
2023-03-27T04:41:38.738Z,1.70
2023-03-27T04:44:06.416Z,1.66
2023-03-27T04:46:34.495Z,1.66
2023-03-27T04:49:07.663Z,1.67
2023-03-27T04:51:49.215Z,1.68
2023-03-27T04:54:18.895Z,1.67
2023-03-27T04:56:47.173Z,1.68
2023-03-27T04:59:18.583Z,1.72
2023-03-27T05:01:57.659Z,1.79
2023-03-27T05:04:46.026Z,1.89
2023-03-27T05:07:21.387Z,2.00
2023-03-27T05:09:49.008Z,2.08
2023-03-27T05:12:16.553Z,2.13
2023-03-27T05:14:53.053Z,2.22
2023-03-27T05:17:45.031Z,2.26
2023-03-27T05:20:17.013Z,2.30
2023-03-27T05:22:44.976Z,2.36
2023-03-27T05:25:27.561Z,2.43
2023-03-27T05:27:56.047Z,2.48
2023-03-27T05:30:27.106Z,2.52
2023-03-27T05:33:14.633Z,2.55
2023-03-27T05:35:42.990Z,2.61
2023-03-27T05:38:12.467Z,2.64
2023-03-27T05:41:06.508Z,2.62
2023-03-27T05:43:38.822Z,2.61
2023-03-27T05:46:06.512Z,2.57
2023-03-27T05:48:34.860Z,2.54
2023-03-27T05:51:06.069Z,2.51
2023-03-27T05:53:37.031Z,2.49
2023-03-27T05:56:18.376Z,2.48
2023-03-27T05:58:58.203Z,2.46
2023-03-27T06:01:26.922Z,2.46
2023-03-27T06:03:56.910Z,2.49
2023-03-27T06:06:29.623Z,2.53
2023-03-27T06:08:59.465Z,2.64
2023-03-27T06:11:44.943Z,2.75
2023-03-27T06:14:12.267Z,2.83
2023-03-27T06:17:01.159Z,2.95
2023-03-27T06:19:45.397Z,2.99
2023-03-27T06:22:12.931Z,3.02
2023-03-27T06:24:41.611Z,3.01
2023-03-27T06:27:10.993Z,2.97
2023-03-27T06:29:41.770Z,2.99
2023-03-27T06:32:09.695Z,3.02
2023-03-27T06:34:47.760Z,3.07
2023-03-27T06:37:55.531Z,3.16
2023-03-27T06:40:28.237Z,3.25
2023-03-27T06:43:10.105Z,3.32
2023-03-27T06:45:50.951Z,3.41
2023-03-27T06:48:33.151Z,3.50
2023-03-27T06:51:03.552Z,3.57
2023-03-27T06:53:35.534Z,3.62
2023-03-27T06:56:05.331Z,3.72
2023-03-27T06:58:52.614Z,3.84
2023-03-27T07:01:25.967Z,4.00
2023-03-27T07:04:22.557Z,4.22
2023-03-27T07:07:08.562Z,4.39
2023-03-27T07:09:40.151Z,4.45
2023-03-27T07:12:11.787Z,4.46
2023-03-27T07:14:41.142Z,4.55
2023-03-27T07:17:09.556Z,4.79
2023-03-27T07:19:49.195Z,5.01
2023-03-27T07:22:18.391Z,5.18
2023-03-27T07:24:45.753Z,5.19
2023-03-27T07:27:12.990Z,5.16
2023-03-27T07:29:41.652Z,4.97
2023-03-27T07:32:11.137Z,4.81
2023-03-27T07:34:42.451Z,4.87
2023-03-27T07:37:14.515Z,5.17
2023-03-27T07:39:59.039Z,5.64
2023-03-27T07:42:28.261Z,6.03
2023-03-27T07:45:04.322Z,6.23
2023-03-27T07:47:32.244Z,6.41
2023-03-27T07:49:59.828Z,6.62
2023-03-27T07:52:27.423Z,6.96
2023-03-27T07:54:59.617Z,7.20
2023-03-27T07:57:59.321Z,7.42
2023-03-27T08:00:32.546Z,7.51
2023-03-27T08:03:11.053Z,7.61
2023-03-27T08:05:46.221Z,7.79
2023-03-27T08:08:16.976Z,7.93
2023-03-27T08:10:48.224Z,8.22
2023-03-27T08:13:18.385Z,8.26
2023-03-27T08:15:46.095Z,8.15
2023-03-27T08:18:25.506Z,7.97
2023-03-27T08:20:58.467Z,7.85
2023-03-27T08:23:31.330Z,7.70
2023-03-27T08:26:16.912Z,7.68
2023-03-27T08:28:54.107Z,7.75
2023-03-27T08:31:24.182Z,7.83
2023-03-27T08:33:53.987Z,7.68
2023-03-27T08:36:25.619Z,7.64
2023-03-27T08:38:55.399Z,7.73
2023-03-27T08:41:42.496Z,7.63
2023-03-27T08:44:19.931Z,7.49
2023-03-27T08:46:56.179Z,7.46
2023-03-27T08:49:29.961Z,7.62
2023-03-27T08:52:33.134Z,7.88
2023-03-27T08:55:18.767Z,7.85
2023-03-27T08:57:56.446Z,7.78
2023-03-27T09:00:33.717Z,7.90
2023-03-27T09:03:27.896Z,7.71
2023-03-27T09:06:10.414Z,7.22
2023-03-27T09:08:50.563Z,6.71
2023-03-27T09:11:27.921Z,6.31
2023-03-27T09:14:10.466Z,6.05
2023-03-27T09:16:49.684Z,6.06
2023-03-27T09:19:49.331Z,6.09
2023-03-27T09:22:25.852Z,6.12
2023-03-27T09:25:19.921Z,6.18
2023-03-27T09:27:49.793Z,6.38
2023-03-27T09:30:41.046Z,6.58
2023-03-27T09:33:14.644Z,6.59
2023-03-27T09:35:44.713Z,6.60
2023-03-27T09:38:24.570Z,6.63
2023-03-27T09:41:01.624Z,6.65
2023-03-27T09:43:46.005Z,6.54
2023-03-27T09:46:19.434Z,6.39
2023-03-27T09:49:20.149Z,6.30
2023-03-27T09:51:59.550Z,6.31
2023-03-27T09:54:59.605Z,6.43
2023-03-27T09:57:37.422Z,6.53
2023-03-27T10:00:25.060Z,6.71
2023-03-27T10:03:01.575Z,6.74
2023-03-27T10:05:31.607Z,6.63
2023-03-27T10:07:59.816Z,6.57
2023-03-27T10:10:55.119Z,6.53
2023-03-27T10:13:43.871Z,6.62
2023-03-27T10:16:11.487Z,6.61
2023-03-27T10:18:53.621Z,6.52
2023-03-27T10:21:40.096Z,6.47
2023-03-27T10:24:21.138Z,6.35
2023-03-27T10:27:18.982Z,6.17
2023-03-27T10:30:33.138Z,6.15
2023-03-27T10:33:36.795Z,6.34
2023-03-27T10:36:27.706Z,6.45
2023-03-27T10:39:00.987Z,6.59
2023-03-27T10:41:41.239Z,6.56
2023-03-27T10:44:17.978Z,6.44
2023-03-27T10:46:52.847Z,6.42
2023-03-27T10:49:30.328Z,6.51
2023-03-27T10:52:15.296Z,6.63
2023-03-27T10:55:00.929Z,6.72
2023-03-27T10:57:31.075Z,6.89
2023-03-27T11:00:22.619Z,7.02
2023-03-27T11:03:23.967Z,7.07
2023-03-27T11:06:00.769Z,7.17
2023-03-27T11:08:42.847Z,7.23
2023-03-27T11:11:23.164Z,7.21
2023-03-27T11:13:54.291Z,7.25
2023-03-27T11:16:43.592Z,7.30
2023-03-27T11:19:49.841Z,7.33
2023-03-27T11:22:44.627Z,7.03
2023-03-27T11:25:27.118Z,6.94
2023-03-27T11:28:18.450Z,6.96
2023-03-27T11:30:53.154Z,6.99
2023-03-27T11:33:37.849Z,7.03
2023-03-27T11:36:17.673Z,7.06
2023-03-27T11:39:13.648Z,7.19
2023-03-27T11:41:51.565Z,7.29
2023-03-27T11:44:20.304Z,7.37
2023-03-27T11:47:37.415Z,7.34
2023-03-27T11:50:23.328Z,7.19
2023-03-27T11:53:19.786Z,7.26
2023-03-27T11:56:24.782Z,7.31
2023-03-27T11:59:37.826Z,7.17
2023-03-27T12:02:17.968Z,6.97
2023-03-27T12:05:00.679Z,6.97
2023-03-27T12:08:05.029Z,7.09
2023-03-27T12:10:37.569Z,7.15
2023-03-27T12:14:01.229Z,7.20
2023-03-27T12:17:02.234Z,7.30
2023-03-27T12:20:06.882Z,7.25
2023-03-27T12:23:17.060Z,6.94
2023-03-27T12:26:31.190Z,6.74
2023-03-27T12:29:58.205Z,6.81
2023-03-27T12:32:47.809Z,6.87
2023-03-27T12:35:23.307Z,6.76
2023-03-27T12:37:59.751Z,6.63
2023-03-27T12:40:37.617Z,6.69
2023-03-27T12:43:11.078Z,6.76
2023-03-27T12:45:50.951Z,6.89
2023-03-27T12:48:21.248Z,6.97
2023-03-27T12:50:55.368Z,6.94
2023-03-27T12:53:26.644Z,6.94
2023-03-27T12:56:16.427Z,7.00
2023-03-27T12:58:51.162Z,6.99
2023-03-27T13:01:51.572Z,6.96
2023-03-27T13:04:40.384Z,6.83
2023-03-27T13:07:35.965Z,6.77
2023-03-27T13:10:12.999Z,6.70
2023-03-27T13:13:15.813Z,6.78
2023-03-27T13:15:52.759Z,6.92
2023-03-27T13:19:00.914Z,6.90
2023-03-27T13:21:31.531Z,6.86
2023-03-27T13:24:32.970Z,6.87
2023-03-27T13:27:44.000Z,6.84
2023-03-27T13:30:48.398Z,6.92
2023-03-27T13:33:39.971Z,7.11
2023-03-27T13:36:13.425Z,7.30
2023-03-27T13:39:04.603Z,7.42
2023-03-27T13:41:44.405Z,7.42
2023-03-27T13:44:28.457Z,7.34
2023-03-27T13:47:28.264Z,7.25
2023-03-27T13:50:35.172Z,7.29
2023-03-27T13:53:12.732Z,7.19
2023-03-27T13:56:32.500Z,7.06
2023-03-27T13:59:46.776Z,7.11
2023-03-27T14:02:58.377Z,7.11
2023-03-27T14:05:57.127Z,7.09
2023-03-27T14:08:42.124Z,7.08
2023-03-27T14:11:38.769Z,7.13
2023-03-27T14:14:33.097Z,7.13
2023-03-27T14:17:37.994Z,7.08
2023-03-27T14:20:24.054Z,7.06
2023-03-27T14:23:00.895Z,6.97
2023-03-27T14:25:40.434Z,6.92
2023-03-27T14:28:45.551Z,6.95
2023-03-27T14:31:19.177Z,6.98
2023-03-27T14:34:09.841Z,6.94
2023-03-27T14:36:44.300Z,6.88
2023-03-27T14:39:22.124Z,6.82
2023-03-27T14:41:58.326Z,6.82
2023-03-27T14:44:31.408Z,6.85
2023-03-27T14:47:12.235Z,6.89
2023-03-27T14:49:49.250Z,6.91
2023-03-27T14:52:35.411Z,6.96
2023-03-27T14:55:34.633Z,6.94
2023-03-27T14:58:25.702Z,6.81
2023-03-27T15:01:00.014Z,6.74
2023-03-27T15:03:34.855Z,6.74
2023-03-27T15:06:13.586Z,6.76
2023-03-27T15:08:52.293Z,6.76
2023-03-27T15:11:40.317Z,6.68
2023-03-27T15:14:25.956Z,6.55
2023-03-27T15:17:15.179Z,6.47
2023-03-27T15:19:49.601Z,6.39
2023-03-27T15:22:34.269Z,6.29
2023-03-27T15:25:11.683Z,6.21
2023-03-27T15:27:46.585Z,6.16
2023-03-27T15:30:51.518Z,6.14
2023-03-27T15:34:03.465Z,6.11
2023-03-27T15:36:34.337Z,6.08
2023-03-27T15:39:04.199Z,6.04
2023-03-27T15:41:38.385Z,5.99
2023-03-27T15:44:11.328Z,5.93
2023-03-27T15:46:55.330Z,5.86
2023-03-27T15:49:29.711Z,5.84
2023-03-27T15:51:58.975Z,5.82
2023-03-27T15:54:37.250Z,5.86
2023-03-27T15:57:14.600Z,5.88
2023-03-27T15:59:52.971Z,5.86
2023-03-27T16:02:24.540Z,5.84
2023-03-27T16:04:55.526Z,5.82
2023-03-27T16:07:30.229Z,5.78
2023-03-27T16:10:03.079Z,5.77
2023-03-27T16:12:49.524Z,5.76
2023-03-27T16:15:37.896Z,5.73
2023-03-27T16:18:22.910Z,5.64
2023-03-27T16:20:50.461Z,5.57
2023-03-27T16:23:17.799Z,5.53
2023-03-27T16:25:45.343Z,5.47
2023-03-27T16:28:16.729Z,5.40
2023-03-27T16:30:45.851Z,5.40
2023-03-27T16:33:16.254Z,5.36
2023-03-27T16:35:45.650Z,5.36
2023-03-27T16:38:16.659Z,5.35
2023-03-27T16:40:44.764Z,5.39
2023-03-27T16:43:12.511Z,5.40
2023-03-27T16:45:40.083Z,5.38
2023-03-27T16:48:08.705Z,5.39
2023-03-27T16:50:36.611Z,5.43
2023-03-27T16:53:04.522Z,5.44
2023-03-27T16:55:31.880Z,5.44
2023-03-27T16:57:59.518Z,5.41
2023-03-27T17:00:27.661Z,5.38
2023-03-27T17:02:54.953Z,5.36
2023-03-27T17:05:22.374Z,5.32
2023-03-27T17:07:49.790Z,5.28
2023-03-27T17:10:17.348Z,5.26
2023-03-27T17:12:44.594Z,5.21
2023-03-27T17:15:11.904Z,5.15
2023-03-27T17:17:39.973Z,5.11
2023-03-27T17:20:08.041Z,5.06
2023-03-27T17:22:35.693Z,4.99
2023-03-27T17:25:05.659Z,4.92
2023-03-27T17:27:33.884Z,4.87
2023-03-27T17:30:03.930Z,4.83
2023-03-27T17:32:31.595Z,4.78
2023-03-27T17:34:59.105Z,4.74
2023-03-27T17:37:27.289Z,4.72
2023-03-27T17:39:54.603Z,4.68
2023-03-27T17:42:22.187Z,4.66
2023-03-27T17:44:49.406Z,4.64
2023-03-27T17:47:16.701Z,4.61
2023-03-27T17:49:45.085Z,4.59
2023-03-27T17:52:13.940Z,4.55
2023-03-27T17:54:41.648Z,4.52
2023-03-27T17:57:09.258Z,4.51
2023-03-27T17:59:48.678Z,4.50
2023-03-27T18:02:21.570Z,4.52
2023-03-27T18:04:52.150Z,4.55
2023-03-27T18:07:20.943Z,4.55
2023-03-27T18:09:49.285Z,4.54
2023-03-27T18:12:19.522Z,4.51
2023-03-27T18:14:46.871Z,4.46
2023-03-27T18:17:15.987Z,4.42
2023-03-27T18:19:43.315Z,4.41
2023-03-27T18:22:11.359Z,4.38
2023-03-27T18:24:38.740Z,4.33
2023-03-27T18:27:06.076Z,4.29
2023-03-27T18:29:34.437Z,4.25
2023-03-27T18:32:01.730Z,4.23
2023-03-27T18:34:29.020Z,4.19
2023-03-27T18:36:56.867Z,4.16
2023-03-27T18:39:24.616Z,4.13
2023-03-27T18:41:53.292Z,4.09
2023-03-27T18:44:21.569Z,4.06
2023-03-27T18:46:48.835Z,4.05
2023-03-27T18:49:24.886Z,4.04
2023-03-27T18:51:52.901Z,4.06
2023-03-27T18:54:20.419Z,4.07
2023-03-27T18:56:48.762Z,4.08
2023-03-27T18:59:16.188Z,4.14
2023-03-27T19:01:44.184Z,4.16
2023-03-27T19:04:11.692Z,4.17
2023-03-27T19:06:39.226Z,4.15
2023-03-27T19:09:06.583Z,4.13
2023-03-27T19:11:33.980Z,4.09
2023-03-27T19:14:08.025Z,4.06
2023-03-27T19:16:44.373Z,4.00
2023-03-27T19:19:12.306Z,3.97
2023-03-27T19:21:52.115Z,3.95
2023-03-27T19:24:45.709Z,3.90
2023-03-27T19:27:23.664Z,3.90
2023-03-27T19:29:53.406Z,3.90
2023-03-27T19:32:21.440Z,3.92
2023-03-27T19:34:48.979Z,3.93
2023-03-27T19:37:16.925Z,3.92
2023-03-27T19:39:44.187Z,3.93
2023-03-27T19:42:11.652Z,3.93
2023-03-27T19:44:39.753Z,3.94
2023-03-27T19:47:07.703Z,3.97
2023-03-27T19:49:40.719Z,4.01
2023-03-27T19:52:27.804Z,4.04
2023-03-27T19:54:55.380Z,4.04
2023-03-27T19:57:25.092Z,4.02
2023-03-27T19:59:55.301Z,4.00
2023-03-27T20:02:22.580Z,3.98
2023-03-27T20:04:50.031Z,3.94
2023-03-27T20:07:17.546Z,3.84
2023-03-27T20:09:45.186Z,3.69
2023-03-27T20:12:12.688Z,3.57
2023-03-27T20:14:41.117Z,3.43
2023-03-27T20:17:21.336Z,3.25
2023-03-27T20:19:55.735Z,3.14
2023-03-27T20:22:23.176Z,3.13
2023-03-27T20:24:50.424Z,3.11
2023-03-27T20:27:19.957Z,3.08
2023-03-27T20:29:47.880Z,3.07
2023-03-27T20:32:15.345Z,3.01
2023-03-27T20:34:42.913Z,2.96
2023-03-27T20:37:12.120Z,2.92
2023-03-27T20:39:47.986Z,2.87
2023-03-27T20:42:18.140Z,2.84
2023-03-27T20:44:47.251Z,2.82
2023-03-27T20:47:15.271Z,2.81
2023-03-27T20:49:49.595Z,2.80
2023-03-27T20:52:19.044Z,2.81
2023-03-27T20:54:47.991Z,2.83
2023-03-27T20:57:17.854Z,2.85
2023-03-27T20:59:47.550Z,2.90
2023-03-27T21:02:18.874Z,2.92
2023-03-27T21:04:46.732Z,2.95
2023-03-27T21:07:15.817Z,2.98
2023-03-27T21:09:45.481Z,3.01
2023-03-27T21:12:13.109Z,3.06
2023-03-27T21:14:40.364Z,3.09
2023-03-27T21:17:07.702Z,3.11
2023-03-27T21:19:34.904Z,3.15
2023-03-27T21:22:03.794Z,3.17
2023-03-27T21:24:31.198Z,3.17
2023-03-27T21:27:00.053Z,3.19
2023-03-27T21:29:27.512Z,3.19
2023-03-27T21:31:54.868Z,3.19
2023-03-27T21:34:22.616Z,3.18
2023-03-27T21:36:49.851Z,3.17
2023-03-27T21:39:17.481Z,3.17
2023-03-27T21:41:44.746Z,3.17
2023-03-27T21:44:12.260Z,3.17
2023-03-27T21:46:39.760Z,3.15
2023-03-27T21:49:07.080Z,3.14
2023-03-27T21:51:34.319Z,3.13
2023-03-27T21:54:01.715Z,3.16
2023-03-27T21:56:28.972Z,3.19
2023-03-27T21:58:57.529Z,3.24
2023-03-27T22:01:26.106Z,3.26
2023-03-27T22:03:53.579Z,3.25
2023-03-27T22:06:21.025Z,3.22
2023-03-27T22:08:48.208Z,3.18
2023-03-27T22:11:15.511Z,3.15
2023-03-27T22:13:43.858Z,3.11
2023-03-27T22:16:14.570Z,3.11
2023-03-27T22:18:42.334Z,3.09
2023-03-27T22:21:18.654Z,3.09
2023-03-27T22:23:46.223Z,3.13
2023-03-27T22:26:13.534Z,3.20
2023-03-27T22:28:40.813Z,3.24
2023-03-27T22:31:08.690Z,3.30
2023-03-27T22:33:37.132Z,3.35
2023-03-27T22:36:05.998Z,3.38
2023-03-27T22:38:33.620Z,3.38
2023-03-27T22:41:01.494Z,3.37
2023-03-27T22:43:29.473Z,3.36
2023-03-27T22:45:57.654Z,3.33
2023-03-27T22:48:25.261Z,3.31
2023-03-27T22:50:56.602Z,3.29
2023-03-27T22:53:25.251Z,3.27
2023-03-27T22:55:54.919Z,3.25
2023-03-27T22:58:23.574Z,3.26
2023-03-27T23:00:52.928Z,3.26
2023-03-27T23:03:21.331Z,3.26
2023-03-27T23:05:50.331Z,3.26
2023-03-27T23:08:19.906Z,3.26
2023-03-27T23:10:55.397Z,3.25
2023-03-27T23:13:23.455Z,3.23
2023-03-27T23:15:51.864Z,3.22
2023-03-27T23:18:24.876Z,3.21
2023-03-27T23:20:57.351Z,3.20
2023-03-27T23:23:26.482Z,3.21
2023-03-27T23:25:54.901Z,3.22
2023-03-27T23:28:22.224Z,3.23
2023-03-27T23:30:59.201Z,3.25
2023-03-27T23:33:27.780Z,3.28
2023-03-27T23:36:06.682Z,3.28
2023-03-27T23:38:34.499Z,3.24
2023-03-27T23:41:03.278Z,3.20
2023-03-27T23:43:31.301Z,3.18
2023-03-27T23:45:59.684Z,3.17
2023-03-27T23:48:31.076Z,3.15
2023-03-27T23:50:58.388Z,3.13
2023-03-27T23:53:27.457Z,3.13
2023-03-27T23:55:57.050Z,3.13
2023-03-27T23:58:28.650Z,3.12
